createdAt,value
2023-01-13T00:02:26.144Z,100861.84
2023-01-13T00:05:28.489Z,100867.84
2023-01-13T00:08:30.376Z,100858.59
2023-01-13T00:11:32.355Z,100870.31
2023-01-13T00:14:34.829Z,100859.75
2023-01-13T00:17:36.708Z,100859.19
2023-01-13T00:20:38.585Z,100857.41
2023-01-13T00:23:40.748Z,100843.75
2023-01-13T00:26:42.626Z,100855.41
2023-01-13T00:29:44.587Z,100849.72
2023-01-13T00:32:46.551Z,100846.47
2023-01-13T00:35:57.874Z,100846.78
2023-01-13T00:38:59.962Z,100850.72
2023-01-13T00:42:20.337Z,100842.44
2023-01-13T00:45:22.178Z,100841.56
2023-01-13T00:48:24.193Z,100848.59
2023-01-13T00:51:26.421Z,100857.91
2023-01-13T00:54:28.315Z,100851.91
2023-01-13T00:57:30.524Z,100839.31
2023-01-13T01:00:33.038Z,100841.53
2023-01-13T01:03:37.497Z,100840.28
2023-01-13T01:06:39.365Z,100846.44
2023-01-13T01:09:41.247Z,100845.91
2023-01-13T01:12:43.144Z,100836.34
2023-01-13T01:15:45.021Z,100833.87
2023-01-13T01:18:47.547Z,100832.66
2023-01-13T01:21:49.359Z,100830.41
2023-01-13T01:24:51.200Z,100828.81
2023-01-13T01:27:53.757Z,100823.09
2023-01-13T01:30:55.652Z,100826.59
2023-01-13T01:33:57.504Z,100822.25
2023-01-13T01:36:59.350Z,100822.28
2023-01-13T01:40:01.323Z,100821.28
2023-01-13T01:43:22.016Z,100816.16
2023-01-13T01:46:23.991Z,100813.78
2023-01-13T01:49:32.954Z,100810.56
2023-01-13T01:52:35.718Z,100801.72
2023-01-13T01:55:37.566Z,100803.50
2023-01-13T01:58:42.261Z,100804.81
2023-01-13T02:01:44.275Z,100800.47
2023-01-13T02:04:51.167Z,100798.69
2023-01-13T02:07:53.563Z,100796.47
2023-01-13T02:10:55.628Z,100797.00
2023-01-13T02:13:57.440Z,100795.06
2023-01-13T02:17:17.957Z,100796.97
2023-01-13T02:20:19.785Z,100792.22
2023-01-13T02:23:52.371Z,100790.47
2023-01-13T02:26:54.295Z,100791.09
2023-01-13T02:30:26.371Z,100788.00
2023-01-13T02:33:37.797Z,100771.81
2023-01-13T02:36:50.532Z,100764.34
2023-01-13T02:39:55.498Z,100775.00
2023-01-13T02:43:39.310Z,100780.56
2023-01-13T02:46:44.655Z,100783.34
2023-01-13T02:50:09.788Z,100779.50
2023-01-13T02:53:15.817Z,100771.97
2023-01-13T02:56:17.717Z,100778.28
2023-01-13T02:59:19.658Z,100773.28
2023-01-13T03:02:21.975Z,100777.84
2023-01-13T03:05:23.980Z,100760.09
2023-01-13T03:08:28.732Z,100768.53
2023-01-13T03:11:33.143Z,100758.38
2023-01-13T03:14:49.411Z,100775.16
2023-01-13T03:18:10.189Z,100755.13
2023-01-13T03:21:23.126Z,100749.37
2023-01-13T03:24:30.608Z,100756.56
2023-01-13T03:27:34.050Z,100753.56
2023-01-13T03:30:43.242Z,100756.56
2023-01-13T03:33:53.485Z,100753.66
2023-01-13T03:36:55.350Z,100752.47
2023-01-13T03:40:29.765Z,100750.16
2023-01-13T03:43:54.948Z,100757.53
2023-01-13T03:46:56.932Z,100747.88
2023-01-13T03:50:14.288Z,100737.97
2023-01-13T03:53:20.684Z,100736.75
2023-01-13T03:56:24.416Z,100738.75
2023-01-13T03:59:27.971Z,100740.38
2023-01-13T04:02:36.799Z,100729.00
2023-01-13T04:05:40.191Z,100738.03
2023-01-13T04:08:44.123Z,100746.41
2023-01-13T04:11:54.130Z,100740.81
2023-01-13T04:14:55.929Z,100745.50
2023-01-13T04:18:11.648Z,100750.25
2023-01-13T04:21:13.633Z,100750.91
2023-01-13T04:24:15.561Z,100748.56
2023-01-13T04:27:17.535Z,100740.59
2023-01-13T04:30:19.530Z,100741.56
2023-01-13T04:33:21.410Z,100752.56
2023-01-13T04:36:27.763Z,100754.94
2023-01-13T04:39:29.726Z,100745.75
2023-01-13T04:42:31.694Z,100761.28
2023-01-13T04:45:34.019Z,100760.97
2023-01-13T04:48:35.951Z,100760.94
2023-01-13T04:51:37.939Z,100757.34
2023-01-13T04:54:39.855Z,100754.25
2023-01-13T04:57:41.829Z,100746.63
2023-01-13T05:00:43.654Z,100757.34
2023-01-13T05:03:45.950Z,100755.19
2023-01-13T05:06:47.925Z,100751.50
2023-01-13T05:09:49.794Z,100759.37
2023-01-13T05:13:10.652Z,100761.12
2023-01-13T05:16:35.734Z,100765.50
2023-01-13T05:19:41.051Z,100760.50
2023-01-13T05:23:01.742Z,100766.37
2023-01-13T05:26:03.745Z,100773.25
2023-01-13T05:29:05.585Z,100765.53
2023-01-13T05:32:08.707Z,100766.34
2023-01-13T05:35:10.612Z,100772.22
2023-01-13T05:38:12.617Z,100771.41
2023-01-13T05:41:33.306Z,100763.53
2023-01-13T05:44:35.161Z,100774.41
2023-01-13T05:47:37.179Z,100768.34
2023-01-13T05:50:39.168Z,100775.53
2023-01-13T05:53:41.103Z,100776.00
2023-01-13T05:56:43.072Z,100774.38
2023-01-13T05:59:44.982Z,100778.03
2023-01-13T06:02:47.039Z,100767.47
2023-01-13T06:05:50.422Z,100770.38
2023-01-13T06:08:52.315Z,100780.50
2023-01-13T06:11:54.212Z,100773.13
2023-01-13T06:14:56.046Z,100773.97
2023-01-13T06:17:58.012Z,100770.34
2023-01-13T06:20:59.955Z,100774.66
2023-01-13T06:24:02.058Z,100768.97
2023-01-13T06:27:05.045Z,100784.50
2023-01-13T06:30:08.628Z,100780.50
2023-01-13T06:33:12.775Z,100787.16
2023-01-13T06:36:17.085Z,100788.41
2023-01-13T06:39:20.161Z,100782.00
2023-01-13T06:42:40.843Z,100777.25
2023-01-13T06:45:43.663Z,100783.63
2023-01-13T06:48:45.837Z,100793.00
2023-01-13T06:51:47.898Z,100792.87
2023-01-13T06:54:49.870Z,100793.56
2023-01-13T06:57:52.622Z,100796.47
2023-01-13T07:00:54.756Z,100800.31
2023-01-13T07:03:58.189Z,100794.47
2023-01-13T07:07:00.107Z,100799.47
2023-01-13T07:10:02.237Z,100799.47
2023-01-13T07:13:23.343Z,100791.91
2023-01-13T07:16:28.043Z,100807.19
2023-01-13T07:19:30.117Z,100812.81
2023-01-13T07:22:32.101Z,100803.78
2023-01-13T07:25:33.986Z,100796.31
2023-01-13T07:28:36.137Z,100795.44
2023-01-13T07:31:39.231Z,100799.78
2023-01-13T07:34:41.450Z,100802.38
2023-01-13T07:37:43.488Z,100801.31
2023-01-13T07:40:45.722Z,100802.41
2023-01-13T07:43:47.878Z,100803.81
2023-01-13T07:46:49.740Z,100797.56
2023-01-13T07:49:51.729Z,100807.44
2023-01-13T07:52:53.602Z,100803.00
2023-01-13T07:55:57.022Z,100804.25
2023-01-13T07:58:59.775Z,100809.19
2023-01-13T08:02:01.950Z,100810.25
2023-01-13T08:05:04.136Z,100805.22
2023-01-13T08:08:06.026Z,100818.53
2023-01-13T08:11:08.411Z,100822.16
2023-01-13T08:14:10.396Z,100831.22
2023-01-13T08:17:12.659Z,100835.09
2023-01-13T08:20:15.026Z,100827.84
2023-01-13T08:23:17.478Z,100836.25
2023-01-13T08:26:19.414Z,100829.66
2023-01-13T08:29:21.414Z,100836.94
2023-01-13T08:32:23.337Z,100840.34
2023-01-13T08:35:25.557Z,100837.34
2023-01-13T08:38:29.798Z,100850.78
2023-01-13T08:41:50.316Z,100842.47
2023-01-13T08:44:52.966Z,100843.91
2023-01-13T08:47:54.863Z,100847.66
2023-01-13T08:51:06.668Z,100849.94
2023-01-13T08:54:08.858Z,100859.56
2023-01-13T08:57:10.944Z,100852.81
2023-01-13T09:00:13.186Z,100851.69
2023-01-13T09:03:15.161Z,100861.63
2023-01-13T09:06:17.160Z,100859.78
2023-01-13T09:09:19.001Z,100849.25
2023-01-13T09:12:39.635Z,100843.81
2023-01-13T09:15:42.411Z,100858.78
2023-01-13T09:18:44.591Z,100860.81
2023-01-13T09:21:46.532Z,100869.00
2023-01-13T09:24:48.545Z,100855.84
2023-01-13T09:27:50.449Z,100852.06
2023-01-13T09:30:52.425Z,100845.03
2023-01-13T09:34:13.128Z,100845.31
2023-01-13T09:37:15.098Z,100856.28
2023-01-13T09:40:17.489Z,100858.66
2023-01-13T09:43:41.367Z,100865.84
2023-01-13T09:46:44.213Z,100847.97
2023-01-13T09:49:46.216Z,100845.47
2023-01-13T09:52:48.151Z,100857.28
2023-01-13T09:55:50.142Z,100842.62
2023-01-13T09:58:52.398Z,100856.47
2023-01-13T10:01:58.619Z,100847.56
2023-01-13T10:05:15.077Z,100852.94
2023-01-13T10:08:16.884Z,100839.31
2023-01-13T10:11:38.218Z,100849.59
2023-01-13T10:14:41.932Z,100835.84
2023-01-13T10:17:55.964Z,100835.12
2023-01-13T10:21:08.527Z,100838.69
2023-01-13T10:24:25.139Z,100840.34
2023-01-13T10:27:36.837Z,100832.78
2023-01-13T10:30:40.372Z,100831.34
2023-01-13T10:33:42.452Z,100842.72
2023-01-13T10:36:59.917Z,100839.63
2023-01-13T10:40:02.097Z,100840.13
2023-01-13T10:43:06.589Z,100822.03
2023-01-13T10:46:12.992Z,100814.28
2023-01-13T10:49:44.421Z,100815.06
2023-01-13T10:52:59.994Z,100812.97
2023-01-13T10:56:03.212Z,100808.31
2023-01-13T10:59:24.105Z,100812.66
2023-01-13T11:02:30.668Z,100802.84
2023-01-13T11:05:32.928Z,100791.09
2023-01-13T11:08:43.128Z,100785.87
2023-01-13T11:11:45.631Z,100786.09
2023-01-13T11:14:47.537Z,100772.31
2023-01-13T11:17:51.914Z,100770.72
2023-01-13T11:20:53.947Z,100762.84
2023-01-13T11:24:14.688Z,100778.50
2023-01-13T11:27:21.984Z,100768.09
2023-01-13T11:30:30.296Z,100753.56
2023-01-13T11:33:37.005Z,100752.34
2023-01-13T11:36:41.635Z,100760.03
2023-01-13T11:40:03.964Z,100761.72
2023-01-13T11:43:11.818Z,100762.31
2023-01-13T11:46:13.671Z,100755.84
2023-01-13T11:49:26.670Z,100754.41
2023-01-13T11:52:33.152Z,100753.50
2023-01-13T11:55:56.326Z,100750.78
2023-01-13T11:59:17.072Z,100739.66
2023-01-13T12:02:18.960Z,100722.38
2023-01-13T12:05:27.012Z,100718.16
2023-01-13T12:08:48.318Z,100704.03
2023-01-13T12:12:14.912Z,100707.84
2023-01-13T12:15:19.724Z,100695.44
2023-01-13T12:18:40.571Z,100689.53
2023-01-13T12:21:51.774Z,100684.13
2023-01-13T12:25:07.318Z,100670.66
2023-01-13T12:28:35.827Z,100677.69
2023-01-13T12:31:38.468Z,100680.25
2023-01-13T12:34:47.421Z,100669.47
2023-01-13T12:37:52.307Z,100675.88
2023-01-13T12:41:14.475Z,100685.75
2023-01-13T12:44:20.429Z,100700.69
2023-01-13T12:47:43.615Z,100679.97
2023-01-13T12:50:45.688Z,100686.12
2023-01-13T12:53:47.586Z,100690.22
2023-01-13T12:56:49.585Z,100686.81
2023-01-13T13:00:15.019Z,100684.84
2023-01-13T13:03:23.882Z,100680.44
2023-01-13T13:06:25.783Z,100677.75
2023-01-13T13:09:27.763Z,100664.06
2023-01-13T13:12:51.718Z,100681.91
2023-01-13T13:15:53.893Z,100687.53
2023-01-13T13:19:16.075Z,100686.22
2023-01-13T13:22:26.892Z,100690.31
2023-01-13T13:25:28.904Z,100701.00
2023-01-13T13:28:34.180Z,100696.78
2023-01-13T13:31:40.317Z,100680.22
2023-01-13T13:34:48.800Z,100688.56
2023-01-13T13:38:22.683Z,100691.69
2023-01-13T13:41:43.533Z,100684.28
2023-01-13T13:45:04.652Z,100682.75
2023-01-13T13:48:39.178Z,100681.28
2023-01-13T13:51:45.223Z,100689.62
2023-01-13T13:54:49.389Z,100690.19
2023-01-13T13:57:52.289Z,100694.84
2023-01-13T14:00:54.450Z,100706.44
2023-01-13T14:04:22.773Z,100706.84
2023-01-13T14:07:24.659Z,100712.44
2023-01-13T14:10:34.166Z,100715.91
2023-01-13T14:13:36.148Z,100714.03
2023-01-13T14:16:38.185Z,100710.56
2023-01-13T14:19:46.049Z,100713.09
2023-01-13T14:22:48.654Z,100710.53
2023-01-13T14:25:52.827Z,100716.19
2023-01-13T14:28:55.606Z,100720.94
2023-01-13T14:31:57.545Z,100713.19
2023-01-13T14:34:59.678Z,100708.19
2023-01-13T14:38:02.061Z,100702.00
2023-01-13T14:41:18.080Z,100704.31
2023-01-13T14:44:20.012Z,100704.13
2023-01-13T14:47:28.483Z,100711.03
2023-01-13T14:50:32.861Z,100702.53
2023-01-13T14:53:34.749Z,100712.03
2023-01-13T14:56:44.308Z,100716.88
2023-01-13T14:59:46.489Z,100719.56
2023-01-13T15:02:49.382Z,100723.12
2023-01-13T15:05:52.128Z,100716.06
2023-01-13T15:08:54.270Z,100715.00
2023-01-13T15:11:58.849Z,100701.28
2023-01-13T15:15:01.063Z,100706.38
2023-01-13T15:18:09.535Z,100708.56
2023-01-13T15:21:11.440Z,100706.94
2023-01-13T15:24:13.411Z,100699.41
2023-01-13T15:27:18.998Z,100707.03
2023-01-13T15:30:22.503Z,100705.31
2023-01-13T15:33:24.513Z,100703.38
2023-01-13T15:36:27.906Z,100701.16
2023-01-13T15:39:29.867Z,100710.53
2023-01-13T15:42:55.071Z,100717.22
2023-01-13T15:46:15.452Z,100714.87
2023-01-13T15:49:27.485Z,100710.22
2023-01-13T15:52:29.512Z,100712.44
2023-01-13T15:55:35.557Z,100710.19
2023-01-13T15:58:37.643Z,100734.38
2023-01-13T16:01:39.770Z,100728.25
2023-01-13T16:04:41.719Z,100732.63
2023-01-13T16:07:43.578Z,100728.28
2023-01-13T16:10:45.521Z,100721.97
2023-01-13T16:13:47.608Z,100731.19
2023-01-13T16:16:49.539Z,100714.87
2023-01-13T16:19:51.833Z,100729.69
2023-01-13T16:22:53.888Z,100722.44
2023-01-13T16:25:56.117Z,100716.06
2023-01-13T16:28:58.262Z,100720.00
2023-01-13T16:32:00.215Z,100721.19
2023-01-13T16:35:02.295Z,100713.44
2023-01-13T16:38:04.219Z,100721.87
2023-01-13T16:41:06.394Z,100721.37
2023-01-13T16:44:08.235Z,100727.53
2023-01-13T16:47:12.659Z,100724.69
2023-01-13T16:50:23.227Z,100716.56
2023-01-13T16:53:25.319Z,100711.53
2023-01-13T16:56:28.465Z,100702.00
2023-01-13T16:59:30.561Z,100705.56
2023-01-13T17:02:32.565Z,100708.34
2023-01-13T17:05:39.364Z,100703.09
2023-01-13T17:08:41.199Z,100710.16
2023-01-13T17:11:43.278Z,100704.22
2023-01-13T17:14:45.193Z,100715.47
2023-01-13T17:17:52.085Z,100705.56
2023-01-13T17:20:54.123Z,100713.28
2023-01-13T17:23:56.076Z,100706.28
2023-01-13T17:26:59.011Z,100719.69
2023-01-13T17:30:01.040Z,100721.13
2023-01-13T17:33:03.017Z,100722.94
2023-01-13T17:36:05.192Z,100718.72
2023-01-13T17:39:07.026Z,100728.78
2023-01-13T17:42:09.093Z,100723.31
2023-01-13T17:45:12.351Z,100730.41
2023-01-13T17:48:14.422Z,100741.50
2023-01-13T17:51:16.840Z,100737.25
2023-01-13T17:54:18.772Z,100740.78
2023-01-13T17:57:20.743Z,100731.78
2023-01-13T18:00:22.716Z,100737.50
2023-01-13T18:03:24.652Z,100742.03
2023-01-13T18:06:26.667Z,100746.78
2023-01-13T18:09:28.650Z,100740.62
2023-01-13T18:12:30.622Z,100743.44
2023-01-13T18:15:32.552Z,100738.97
2023-01-13T18:18:34.544Z,100744.50
2023-01-13T18:21:55.311Z,100740.56
2023-01-13T18:25:15.856Z,100744.78
2023-01-13T18:28:17.761Z,100747.62
2023-01-13T18:31:19.817Z,100751.94
2023-01-13T18:34:21.803Z,100754.31
2023-01-13T18:37:23.773Z,100758.87
2023-01-13T18:40:25.700Z,100760.62
2023-01-13T18:43:27.630Z,100749.50
2023-01-13T18:46:29.679Z,100755.50
2023-01-13T18:49:31.695Z,100748.91
2023-01-13T18:52:33.681Z,100753.19
2023-01-13T18:55:37.377Z,100756.59
2023-01-13T18:58:43.672Z,100765.84
2023-01-13T19:01:45.897Z,100766.97
2023-01-13T19:04:49.647Z,100772.47
2023-01-13T19:07:52.090Z,100772.72
2023-01-13T19:10:53.994Z,100770.34
2023-01-13T19:13:56.009Z,100763.72
2023-01-13T19:16:58.052Z,100759.72
2023-01-13T19:20:00.501Z,100759.94
2023-01-13T19:23:02.463Z,100774.38
2023-01-13T19:26:05.331Z,100773.34
2023-01-13T19:29:08.521Z,100771.47
2023-01-13T19:32:10.971Z,100777.28
2023-01-13T19:35:17.244Z,100789.84
2023-01-13T19:38:19.081Z,100795.53
2023-01-13T19:41:44.113Z,100798.38
2023-01-13T19:45:04.675Z,100804.91
2023-01-13T19:48:08.462Z,100803.00
2023-01-13T19:51:10.665Z,100809.03
2023-01-13T19:54:12.613Z,100817.28
2023-01-13T19:57:14.722Z,100813.13
2023-01-13T20:00:21.114Z,100819.69
2023-01-13T20:03:24.568Z,100838.59
2023-01-13T20:06:26.505Z,100841.81
2023-01-13T20:09:29.982Z,100846.06
2023-01-13T20:12:32.082Z,100849.12
2023-01-13T20:15:34.035Z,100836.59
2023-01-13T20:18:37.344Z,100843.66
2023-01-13T20:21:39.919Z,100829.34
2023-01-13T20:24:41.891Z,100820.16
2023-01-13T20:27:44.038Z,100823.06
2023-01-13T20:30:46.428Z,100832.81
2023-01-13T20:33:51.475Z,100831.41
2023-01-13T20:36:53.440Z,100820.41
2023-01-13T20:39:57.450Z,100816.87
2023-01-13T20:42:59.355Z,100816.97
2023-01-13T20:46:01.227Z,100812.59
2023-01-13T20:49:03.257Z,100804.28
2023-01-13T20:52:09.464Z,100806.97
2023-01-13T20:55:11.454Z,100806.06
2023-01-13T20:58:13.344Z,100820.94
2023-01-13T21:01:15.231Z,100827.06
2023-01-13T21:04:17.299Z,100827.19
2023-01-13T21:07:19.167Z,100839.34
2023-01-13T21:10:20.999Z,100845.62
2023-01-13T21:13:41.655Z,100819.94
2023-01-13T21:16:43.533Z,100832.81
2023-01-13T21:19:45.463Z,100830.84
2023-01-13T21:22:47.744Z,100817.25
2023-01-13T21:25:49.811Z,100807.44
2023-01-13T21:28:51.685Z,100813.59
2023-01-13T21:31:54.581Z,100815.38
2023-01-13T21:34:58.854Z,100808.75
2023-01-13T21:38:00.970Z,100814.44
2023-01-13T21:41:06.965Z,100807.03
2023-01-13T21:44:31.187Z,100803.94
2023-01-13T21:47:48.282Z,100804.19
2023-01-13T21:50:50.217Z,100786.09
2023-01-13T21:53:53.305Z,100792.91
2023-01-13T21:56:55.423Z,100795.94
2023-01-13T21:59:57.493Z,100778.63
2023-01-13T22:03:00.282Z,100781.28
2023-01-13T22:06:02.461Z,100783.09
2023-01-13T22:09:04.755Z,100777.09
2023-01-13T22:12:06.626Z,100790.78
2023-01-13T22:15:09.100Z,100792.06
2023-01-13T22:18:11.033Z,100807.91
2023-01-13T22:21:12.959Z,100832.69
2023-01-13T22:24:14.822Z,100851.19
2023-01-13T22:27:18.957Z,100866.78
2023-01-13T22:30:25.086Z,100883.91
2023-01-13T22:33:26.960Z,100874.19
2023-01-13T22:36:28.955Z,100887.63
2023-01-13T22:39:30.888Z,100893.34
2023-01-13T22:42:32.772Z,100891.00
2023-01-13T22:45:34.718Z,100886.81
2023-01-13T22:48:37.053Z,100898.19
2023-01-13T22:51:39.265Z,100904.41
2023-01-13T22:54:41.368Z,100899.94
2023-01-13T22:57:48.204Z,100895.53
2023-01-13T23:00:50.627Z,100901.66
2023-01-13T23:03:52.593Z,100895.34
2023-01-13T23:06:54.484Z,100888.75
2023-01-13T23:09:56.393Z,100885.00
2023-01-13T23:12:58.194Z,100867.75
2023-01-13T23:16:04.010Z,100847.88
2023-01-13T23:19:06.601Z,100845.75
2023-01-13T23:22:08.505Z,100827.53
2023-01-13T23:25:10.639Z,100809.47
2023-01-13T23:28:12.472Z,100800.69
2023-01-13T23:31:16.222Z,100814.41
2023-01-13T23:34:18.097Z,100816.28
2023-01-13T23:37:19.957Z,100823.06
2023-01-13T23:40:21.989Z,100828.59
2023-01-13T23:43:23.983Z,100829.34
2023-01-13T23:46:26.483Z,100832.19
2023-01-13T23:49:28.362Z,100824.50
2023-01-13T23:52:30.293Z,100820.63
2023-01-13T23:55:32.216Z,100816.16
2023-01-13T23:58:34.874Z,100808.72
